Aurora, Missouri
Current Conditions -  °F | °C
As of 2:35 PM on Sunday 21 Dec 2014 (Local Time) from KHFJ Reporting Station
Overcast Overcast  
Wind Chill: 39°   Ceiling: 2300
Heat Index: 45°   Visibility: 10mi
Dew Point: 37°   Wind: 12mph
Humidity: 76%   Direction: 140°SE
Pressure: 29.9"   Gusts: 17mph
Location:  36.97°N, 93.72°W
Report Text: KHFJ 212035Z AUTO 14010G15KT 10SM SCT015 BKN023 OVC041 07/03 A2990 RMK AO2
Loading
Personal Weather Stations






























Interactive Weather Map New forecast layout! Learn more

10-Day Weather Forecast

Advertisements
Track Severe Weather on mobile